createdAt,value
2022-08-07T00:00:26.720Z,68.26
2022-08-07T00:03:06.814Z,68.22
2022-08-07T00:05:37.792Z,67.42
2022-08-07T00:08:07.895Z,67.73
2022-08-07T00:10:48.377Z,67.90
2022-08-07T00:13:26.797Z,68.06
2022-08-07T00:15:55.692Z,68.42
2022-08-07T00:18:29.147Z,68.34
2022-08-07T00:21:01.949Z,68.72
2022-08-07T00:23:33.446Z,68.77
2022-08-07T00:26:12.801Z,68.91
2022-08-07T00:28:45.912Z,69.41
2022-08-07T00:31:37.330Z,69.81
2022-08-07T00:34:08.945Z,69.45
2022-08-07T00:36:43.258Z,70.20
2022-08-07T00:39:16.529Z,71.64
2022-08-07T00:42:02.211Z,72.10
2022-08-07T00:44:34.763Z,72.24
2022-08-07T00:47:06.558Z,72.62
2022-08-07T00:50:19.005Z,73.40
2022-08-07T00:52:33.331Z,73.19
2022-08-07T00:55:10.547Z,73.31
2022-08-07T00:57:55.295Z,73.20
2022-08-07T01:00:25.435Z,73.71
2022-08-07T01:02:54.657Z,73.32
2022-08-07T01:05:24.634Z,73.00
2022-08-07T01:07:53.055Z,73.64
2022-08-07T01:10:23.772Z,72.62
2022-08-07T01:12:54.586Z,72.28
2022-08-07T01:16:01.258Z,72.04
2022-08-07T01:18:17.054Z,72.51
2022-08-07T01:21:10.285Z,72.39
2022-08-07T01:23:54.083Z,71.59
2022-08-07T01:26:26.203Z,71.19
2022-08-07T01:28:55.686Z,71.77
2022-08-07T01:31:42.506Z,72.02
2022-08-07T01:34:14.488Z,72.20
2022-08-07T01:36:52.917Z,71.87
2022-08-07T01:39:41.399Z,72.79
2022-08-07T01:42:57.432Z,72.82
2022-08-07T01:45:36.446Z,73.27
2022-08-07T01:48:20.253Z,72.88
2022-08-07T01:52:01.071Z,72.78
2022-08-07T01:54:11.802Z,72.55
2022-08-07T01:56:53.144Z,72.62
2022-08-07T01:59:23.433Z,72.60
2022-08-07T02:02:06.178Z,72.60
2022-08-07T02:04:52.628Z,72.61
2022-08-07T02:07:36.135Z,72.50
2022-08-07T02:10:25.220Z,72.11
2022-08-07T02:12:59.668Z,72.66
2022-08-07T02:15:36.161Z,73.14
2022-08-07T02:18:06.965Z,73.66
2022-08-07T02:20:37.439Z,74.60
2022-08-07T02:23:07.792Z,74.79
2022-08-07T02:26:31.730Z,75.11
2022-08-07T02:28:31.500Z,75.78
2022-08-07T02:31:10.254Z,76.38
2022-08-07T02:34:03.931Z,77.08
2022-08-07T02:36:42.663Z,76.50
2022-08-07T02:39:42.991Z,76.22
2022-08-07T02:42:10.213Z,77.13
2022-08-07T02:44:48.963Z,76.57
2022-08-07T02:47:23.463Z,76.14
2022-08-07T02:49:57.877Z,75.90
2022-08-07T02:52:48.691Z,76.08
2022-08-07T02:55:28.383Z,76.74
2022-08-07T02:58:21.604Z,77.05
2022-08-07T03:00:55.142Z,77.38
2022-08-07T03:03:29.613Z,77.26
2022-08-07T03:06:26.279Z,77.63
2022-08-07T03:09:05.063Z,77.64
2022-08-07T03:11:38.665Z,77.91
2022-08-07T03:14:09.305Z,77.78
2022-08-07T03:16:40.610Z,77.78
2022-08-07T03:19:11.002Z,77.56
2022-08-07T03:21:50.346Z,77.59
2022-08-07T03:24:27.432Z,76.82
2022-08-07T03:27:02.104Z,78.09
2022-08-07T03:29:46.264Z,77.65
2022-08-07T03:32:26.073Z,78.10
2022-08-07T03:35:17.711Z,78.83
2022-08-07T03:37:55.230Z,78.58
2022-08-07T03:40:36.153Z,77.97
2022-08-07T03:43:09.991Z,77.62
2022-08-07T03:45:47.927Z,77.53
2022-08-07T03:48:19.211Z,78.59
2022-08-07T03:50:56.200Z,78.82
2022-08-07T03:54:33.119Z,77.91
2022-08-07T03:56:33.328Z,77.88
2022-08-07T03:59:09.214Z,76.99
2022-08-07T04:01:46.068Z,75.44
2022-08-07T04:04:17.930Z,74.76
2022-08-07T04:06:50.964Z,75.77
2022-08-07T04:09:23.105Z,75.47
2022-08-07T04:12:27.890Z,74.72
2022-08-07T04:14:47.719Z,73.66
2022-08-07T04:17:20.790Z,72.26
2022-08-07T04:19:54.392Z,71.98
2022-08-07T04:22:27.411Z,70.28
2022-08-07T04:25:00.959Z,69.46
2022-08-07T04:27:38.135Z,68.52
2022-08-07T04:30:21.650Z,67.00
2022-08-07T04:33:15.400Z,65.24
2022-08-07T04:35:50.569Z,64.85
2022-08-07T04:38:21.016Z,64.12
2022-08-07T04:40:52.231Z,63.37
2022-08-07T04:44:09.706Z,61.49
2022-08-07T04:47:09.116Z,61.28
2022-08-07T04:50:03.875Z,60.63
2022-08-07T04:52:52.466Z,59.83
2022-08-07T04:58:10.969Z,57.66
2022-08-07T05:00:09.434Z,56.08
2022-08-07T05:02:39.750Z,55.41
2022-08-07T05:05:53.057Z,53.49
2022-08-07T05:08:59.960Z,53.18
2022-08-07T05:11:58.667Z,52.18
2022-08-07T05:15:23.109Z,51.59
2022-08-07T05:18:09.051Z,51.02
2022-08-07T05:20:54.240Z,50.89
2022-08-07T05:23:30.086Z,49.64
2022-08-07T05:26:13.050Z,49.54
2022-08-07T05:28:50.285Z,48.90
2022-08-07T05:31:35.353Z,48.73
2022-08-07T05:34:12.044Z,48.70
2022-08-07T05:36:44.891Z,47.48
2022-08-07T05:40:13.746Z,47.41
2022-08-07T05:42:33.613Z,46.84
2022-08-07T05:45:26.343Z,45.84
2022-08-07T05:48:01.132Z,45.69
2022-08-07T05:50:34.415Z,44.41
2022-08-07T05:53:04.150Z,44.51
2022-08-07T05:56:02.474Z,44.46
2022-08-07T05:58:36.240Z,45.09
2022-08-07T06:01:10.492Z,43.81
2022-08-07T06:03:53.573Z,43.71
2022-08-07T06:06:29.915Z,43.09
2022-08-07T06:09:04.431Z,42.34
2022-08-07T06:11:34.845Z,41.48
2022-08-07T06:14:13.138Z,40.89
2022-08-07T06:16:56.412Z,40.13
2022-08-07T06:19:58.314Z,39.97
2022-08-07T06:22:27.135Z,39.09
2022-08-07T06:25:14.627Z,38.65
2022-08-07T06:28:00.498Z,37.52
2022-08-07T06:30:35.770Z,36.83
2022-08-07T06:33:16.296Z,36.69
2022-08-07T06:36:13.067Z,36.41
2022-08-07T06:38:39.495Z,36.55
2022-08-07T06:42:03.046Z,36.25
2022-08-07T06:44:22.649Z,36.15
2022-08-07T06:46:53.366Z,35.80
2022-08-07T06:49:28.623Z,35.14
2022-08-07T06:52:07.322Z,35.39
2022-08-07T06:55:33.376Z,35.16
2022-08-07T06:57:48.341Z,34.37
2022-08-07T07:00:20.774Z,33.87
2022-08-07T07:02:54.403Z,32.81
2022-08-07T07:06:03.226Z,33.33
2022-08-07T07:08:18.507Z,32.50
2022-08-07T07:10:57.164Z,32.60
2022-08-07T07:13:58.548Z,31.85
2022-08-07T07:16:33.530Z,32.16
2022-08-07T07:19:11.525Z,31.94
2022-08-07T07:22:12.104Z,31.68
2022-08-07T07:24:56.577Z,31.01
2022-08-07T07:27:35.571Z,30.89
2022-08-07T07:30:32.708Z,31.34
2022-08-07T07:33:08.008Z,30.46
2022-08-07T07:35:44.095Z,30.15
2022-08-07T07:38:26.328Z,29.98
2022-08-07T07:41:02.074Z,30.02
2022-08-07T07:43:48.075Z,29.95
2022-08-07T07:46:37.611Z,29.96
2022-08-07T07:50:36.177Z,29.00
2022-08-07T07:52:07.353Z,28.42
2022-08-07T07:54:38.313Z,28.42
2022-08-07T07:57:11.543Z,28.28
2022-08-07T07:59:52.091Z,28.20
2022-08-07T08:02:35.506Z,27.86
2022-08-07T08:05:14.136Z,28.16
2022-08-07T08:07:59.717Z,27.56
2022-08-07T08:10:38.026Z,27.08
2022-08-07T08:13:10.544Z,26.71
2022-08-07T08:15:59.027Z,26.55
2022-08-07T08:18:30.277Z,26.28
2022-08-07T08:21:01.799Z,25.94
2022-08-07T08:23:51.772Z,25.19
2022-08-07T08:26:39.901Z,25.54
2022-08-07T08:29:09.521Z,25.68
2022-08-07T08:31:58.654Z,25.08
2022-08-07T08:34:38.339Z,25.96
2022-08-07T08:38:00.789Z,25.27
2022-08-07T08:39:59.183Z,24.09
2022-08-07T08:42:37.275Z,23.75
2022-08-07T08:45:26.892Z,23.89
2022-08-07T08:48:28.531Z,24.30
2022-08-07T08:51:14.305Z,23.63
2022-08-07T08:54:04.866Z,22.93
2022-08-07T08:56:39.273Z,21.97
2022-08-07T08:59:42.196Z,22.84
2022-08-07T09:02:36.386Z,23.16
2022-08-07T09:05:38.090Z,22.83
2022-08-07T09:08:28.531Z,22.86
2022-08-07T09:11:43.727Z,23.00
2022-08-07T09:14:58.748Z,22.98
2022-08-07T09:18:07.153Z,23.32
2022-08-07T09:21:00.782Z,23.48
2022-08-07T09:24:31.221Z,22.78
2022-08-07T09:26:38.558Z,23.55
2022-08-07T09:30:03.369Z,23.56
2022-08-07T09:32:50.202Z,22.05
2022-08-07T09:36:02.989Z,21.54
2022-08-07T09:38:25.754Z,20.60
2022-08-07T09:41:15.743Z,20.04
2022-08-07T09:44:05.854Z,19.65
2022-08-07T09:47:50.138Z,19.64
2022-08-07T09:50:33.784Z,19.68
2022-08-07T09:53:06.010Z,19.32
2022-08-07T09:56:19.765Z,19.07
2022-08-07T09:59:21.750Z,18.87
2022-08-07T10:03:08.553Z,18.95
2022-08-07T10:06:02.876Z,19.79
2022-08-07T10:08:35.874Z,19.83
2022-08-07T10:12:01.695Z,19.93
2022-08-07T10:14:30.347Z,19.48
2022-08-07T10:18:01.704Z,19.28
2022-08-07T10:20:58.059Z,19.70
2022-08-07T10:24:06.263Z,19.69
2022-08-07T10:26:53.182Z,20.27
2022-08-07T10:29:40.468Z,20.94
2022-08-07T10:32:52.585Z,21.63
2022-08-07T10:35:55.347Z,21.50
2022-08-07T10:38:41.181Z,21.37
2022-08-07T10:41:47.507Z,20.23
2022-08-07T10:44:50.081Z,19.49
2022-08-07T10:47:53.588Z,19.32
2022-08-07T10:50:31.852Z,19.82
2022-08-07T10:53:25.185Z,19.93
2022-08-07T10:56:30.936Z,19.95
2022-08-07T10:59:37.793Z,20.86
2022-08-07T11:02:33.038Z,20.80
2022-08-07T11:05:20.016Z,20.71
2022-08-07T11:08:17.913Z,21.38
2022-08-07T11:10:59.668Z,22.04
2022-08-07T11:14:43.772Z,22.07
2022-08-07T11:16:42.048Z,22.47
2022-08-07T11:19:14.557Z,22.11
2022-08-07T11:22:18.949Z,23.05
2022-08-07T11:25:09.798Z,23.18
2022-08-07T11:28:09.039Z,23.41
2022-08-07T11:31:02.066Z,24.41
2022-08-07T11:33:53.526Z,24.67
2022-08-07T11:36:35.844Z,25.61
2022-08-07T11:39:07.293Z,25.14
2022-08-07T11:42:01.780Z,25.33
2022-08-07T11:44:52.548Z,25.09
2022-08-07T11:47:53.585Z,25.18
2022-08-07T11:50:57.463Z,25.20
2022-08-07T11:54:00.594Z,25.58
2022-08-07T11:56:53.107Z,26.06
2022-08-07T12:00:11.878Z,26.08
2022-08-07T12:03:00.495Z,27.10
2022-08-07T12:05:59.454Z,27.96
2022-08-07T12:08:37.094Z,28.98
2022-08-07T12:11:21.038Z,29.05
2022-08-07T12:14:11.417Z,29.34
2022-08-07T12:16:53.933Z,28.99
2022-08-07T12:20:04.932Z,28.86
2022-08-07T12:22:58.618Z,29.16
2022-08-07T12:26:05.323Z,29.42
2022-08-07T12:28:54.307Z,30.77
2022-08-07T12:32:03.956Z,32.48
2022-08-07T12:34:39.651Z,33.39
2022-08-07T12:37:16.875Z,33.63
2022-08-07T12:39:59.147Z,33.75
2022-08-07T12:42:32.158Z,34.11
2022-08-07T12:45:15.895Z,33.88
2022-08-07T12:47:49.417Z,33.46
2022-08-07T12:50:40.229Z,33.68
2022-08-07T12:53:18.757Z,33.94
2022-08-07T12:56:02.606Z,34.11
2022-08-07T12:58:39.669Z,34.31
2022-08-07T13:01:58.367Z,34.12
2022-08-07T13:05:10.348Z,33.84
2022-08-07T13:08:18.561Z,34.06
2022-08-07T13:11:01.371Z,34.33
2022-08-07T13:13:57.319Z,34.93
2022-08-07T13:16:47.007Z,34.45
2022-08-07T13:19:50.464Z,35.09
2022-08-07T13:22:59.903Z,35.64
2022-08-07T13:25:54.202Z,36.02
2022-08-07T13:28:37.855Z,36.18
2022-08-07T13:31:13.198Z,36.32
2022-08-07T13:34:31.026Z,37.01
2022-08-07T13:36:51.402Z,36.90
2022-08-07T13:39:49.440Z,37.09
2022-08-07T13:42:24.914Z,37.15
2022-08-07T13:45:20.634Z,37.65
2022-08-07T13:48:05.335Z,38.64
2022-08-07T13:51:00.358Z,39.47
2022-08-07T13:53:59.233Z,40.18
2022-08-07T13:56:36.367Z,39.87
2022-08-07T13:59:19.913Z,40.22
2022-08-07T14:02:03.875Z,40.10
2022-08-07T14:04:48.879Z,39.57
2022-08-07T14:07:26.462Z,40.22
2022-08-07T14:10:16.302Z,40.88
2022-08-07T14:12:58.724Z,41.97
2022-08-07T14:15:38.403Z,43.18
2022-08-07T14:18:29.910Z,43.54
2022-08-07T14:21:20.976Z,44.06
2022-08-07T14:24:12.777Z,44.33
2022-08-07T14:26:56.705Z,44.38
2022-08-07T14:30:07.854Z,44.49
2022-08-07T14:32:26.946Z,44.92
2022-08-07T14:34:56.203Z,44.46
2022-08-07T14:37:36.294Z,44.21
2022-08-07T14:40:26.575Z,44.51
2022-08-07T14:43:57.357Z,44.25
2022-08-07T14:46:04.682Z,43.50
2022-08-07T14:48:37.217Z,43.96
2022-08-07T14:51:15.602Z,43.46
2022-08-07T14:54:05.555Z,43.37
2022-08-07T14:56:40.489Z,43.74
2022-08-07T14:59:13.821Z,44.09
2022-08-07T15:02:34.022Z,44.31
2022-08-07T15:05:04.955Z,43.81
2022-08-07T15:07:51.776Z,43.63
2022-08-07T15:10:26.113Z,43.62
2022-08-07T15:13:01.314Z,43.36
2022-08-07T15:15:56.726Z,43.45
2022-08-07T15:18:47.622Z,43.53
2022-08-07T15:25:13.406Z,42.98
2022-08-07T15:27:19.458Z,42.74
2022-08-07T15:30:06.526Z,42.41
2022-08-07T15:42:42.596Z,42.44
2022-08-07T15:44:15.370Z,42.38
2022-08-07T15:52:31.462Z,42.08
2022-08-07T15:55:08.841Z,42.24
2022-08-07T15:57:49.012Z,42.10
2022-08-07T16:00:30.987Z,42.33
2022-08-07T16:03:21.624Z,42.81
2022-08-07T16:06:02.425Z,43.16
2022-08-07T16:08:38.647Z,42.96
2022-08-07T16:11:26.546Z,43.17
2022-08-07T16:14:45.319Z,44.00
2022-08-07T16:18:02.420Z,45.33
2022-08-07T16:20:55.173Z,45.55
2022-08-07T16:23:53.923Z,46.09
2022-08-07T16:26:30.528Z,46.18
2022-08-07T16:30:05.747Z,46.11
2022-08-07T16:32:35.356Z,46.77
2022-08-07T16:35:51.487Z,46.84
2022-08-07T16:38:09.441Z,47.09
2022-08-07T16:41:13.242Z,46.88
2022-08-07T16:44:06.281Z,46.83
2022-08-07T16:47:08.766Z,46.38
2022-08-07T16:50:20.280Z,46.53
2022-08-07T16:52:52.645Z,47.11
2022-08-07T16:55:47.259Z,47.34
2022-08-07T16:59:02.284Z,47.79
2022-08-07T17:01:27.588Z,48.46
2022-08-07T17:04:50.918Z,48.47
2022-08-07T17:07:51.989Z,48.43
2022-08-07T17:10:39.696Z,48.31
2022-08-07T17:13:16.685Z,48.37
2022-08-07T17:16:05.952Z,48.26
2022-08-07T17:19:23.989Z,47.99
2022-08-07T17:22:36.468Z,48.13
2022-08-07T17:25:47.325Z,48.06
2022-08-07T17:28:22.326Z,47.89
2022-08-07T17:31:00.956Z,47.91
2022-08-07T17:34:34.046Z,48.33
2022-08-07T17:38:08.858Z,48.81
2022-08-07T17:40:30.505Z,49.17
2022-08-07T17:43:18.412Z,49.24
2022-08-07T17:46:09.022Z,50.00
2022-08-07T17:48:46.701Z,50.34
2022-08-07T17:51:49.438Z,50.39
2022-08-07T17:54:40.052Z,50.93
2022-08-07T17:57:58.838Z,50.97
2022-08-07T18:00:34.190Z,51.28
2022-08-07T18:04:04.413Z,51.91
2022-08-07T18:06:43.173Z,51.96
2022-08-07T18:10:06.794Z,52.31
2022-08-07T18:12:30.189Z,52.44
2022-08-07T18:15:12.085Z,52.99
2022-08-07T18:18:47.642Z,53.13
2022-08-07T18:21:30.655Z,53.63
2022-08-07T18:24:07.688Z,53.74
2022-08-07T18:26:40.878Z,53.63
2022-08-07T18:30:05.424Z,54.16
2022-08-07T18:32:21.835Z,54.17
2022-08-07T18:35:15.807Z,53.97
2022-08-07T18:38:56.136Z,54.17
2022-08-07T18:41:09.122Z,54.20
2022-08-07T18:44:09.412Z,53.92
2022-08-07T18:46:51.442Z,54.18
2022-08-07T18:50:33.022Z,54.03
2022-08-07T18:52:37.841Z,54.15
2022-08-07T18:55:55.940Z,55.10
2022-08-07T18:58:51.273Z,55.30
2022-08-07T19:02:32.302Z,55.53
2022-08-07T19:05:14.855Z,56.12
2022-08-07T19:08:13.294Z,56.33
2022-08-07T19:10:51.533Z,57.26
2022-08-07T19:13:27.853Z,57.69
2022-08-07T19:17:00.386Z,58.21
2022-08-07T19:19:31.693Z,58.70
2022-08-07T19:22:11.199Z,58.81
2022-08-07T19:24:48.676Z,59.21
2022-08-07T19:28:56.697Z,59.08
2022-08-07T19:31:05.189Z,58.94
2022-08-07T19:33:12.926Z,58.92
2022-08-07T19:35:51.905Z,59.44
2022-08-07T19:38:21.777Z,58.90
2022-08-07T19:40:56.205Z,59.17
2022-08-07T19:43:49.247Z,58.94
2022-08-07T19:46:26.316Z,59.02
2022-08-07T19:49:05.406Z,59.11
2022-08-07T19:51:50.946Z,59.26
2022-08-07T19:54:34.191Z,59.30
2022-08-07T19:58:01.099Z,59.67
2022-08-07T20:00:12.801Z,59.94
2022-08-07T20:03:02.961Z,59.71
2022-08-07T20:05:59.911Z,60.00
2022-08-07T20:08:27.964Z,60.34
2022-08-07T20:11:10.137Z,60.28
2022-08-07T20:13:50.564Z,60.15
2022-08-07T20:16:36.463Z,60.12
2022-08-07T20:19:10.535Z,60.93
2022-08-07T20:21:47.295Z,61.38
2022-08-07T20:24:24.157Z,61.72
2022-08-07T20:27:02.765Z,61.44
2022-08-07T20:29:49.071Z,61.60
2022-08-07T20:32:38.958Z,61.21
2022-08-07T20:35:15.856Z,60.96
2022-08-07T20:37:57.694Z,61.00
2022-08-07T20:40:37.606Z,61.43
2022-08-07T20:43:14.647Z,61.49
2022-08-07T20:46:25.873Z,61.44
2022-08-07T20:49:54.194Z,61.47
2022-08-07T20:51:35.907Z,61.20
2022-08-07T20:54:12.071Z,61.28
2022-08-07T20:56:45.907Z,61.27
2022-08-07T21:00:04.162Z,61.41
2022-08-07T21:02:35.420Z,61.57
2022-08-07T21:05:16.758Z,62.66
2022-08-07T21:07:50.065Z,62.70
2022-08-07T21:10:29.506Z,62.64
2022-08-07T21:13:05.058Z,62.22
2022-08-07T21:15:58.239Z,61.91
2022-08-07T21:18:33.457Z,61.48
2022-08-07T21:21:04.253Z,61.15
2022-08-07T21:24:01.108Z,61.14
2022-08-07T21:26:42.839Z,61.14
2022-08-07T21:29:30.628Z,60.52
2022-08-07T21:32:47.199Z,60.01
2022-08-07T21:35:11.213Z,59.54
2022-08-07T21:37:57.952Z,59.07
2022-08-07T21:40:38.396Z,58.76
2022-08-07T21:43:55.452Z,58.48
2022-08-07T21:46:43.751Z,58.36
2022-08-07T21:49:21.289Z,57.94
2022-08-07T21:52:11.828Z,57.55
2022-08-07T21:54:56.761Z,57.18
2022-08-07T21:57:44.776Z,57.31
2022-08-07T22:00:25.587Z,57.35
2022-08-07T22:03:31.063Z,57.74
2022-08-07T22:06:30.106Z,58.54
2022-08-07T22:09:10.994Z,59.28
2022-08-07T22:12:05.223Z,59.32
2022-08-07T22:14:44.078Z,59.76
2022-08-07T22:17:53.879Z,60.32
2022-08-07T22:20:30.551Z,60.82
2022-08-07T22:23:14.914Z,61.13
2022-08-07T22:26:02.140Z,61.29
2022-08-07T22:28:40.735Z,61.91
2022-08-07T22:31:59.106Z,62.36
2022-08-07T22:34:15.574Z,61.77
2022-08-07T22:38:02.976Z,61.89
2022-08-07T22:40:38.552Z,61.86
2022-08-07T22:43:10.909Z,61.95
2022-08-07T22:47:02.696Z,62.36
2022-08-07T22:49:37.792Z,62.60
2022-08-07T22:53:03.198Z,62.67
2022-08-07T22:55:43.613Z,63.14
2022-08-07T22:58:28.322Z,63.92
2022-08-07T23:01:06.300Z,64.09
2022-08-07T23:04:08.632Z,64.43
2022-08-07T23:06:42.901Z,65.66
2022-08-07T23:10:04.610Z,66.18
2022-08-07T23:12:34.658Z,66.74
2022-08-07T23:16:04.547Z,66.88
2022-08-07T23:18:32.560Z,66.93
2022-08-07T23:21:03.794Z,67.21
2022-08-07T23:24:11.687Z,67.05
2022-08-07T23:27:07.864Z,67.35
2022-08-07T23:30:37.643Z,67.07
2022-08-07T23:34:35.253Z,67.30
2022-08-07T23:36:02.814Z,67.32
2022-08-07T23:39:02.046Z,67.21
2022-08-07T23:42:04.140Z,67.12
2022-08-07T23:44:55.212Z,67.26
2022-08-07T23:48:01.970Z,67.11
2022-08-07T23:50:39.439Z,67.27
2022-08-07T23:53:51.361Z,66.90
2022-08-07T23:56:38.883Z,67.24
